sensor_id;sensor_type;location;lat;lon;timestamp;P1;durP1;ratioP1;P2;durP2;ratioP2
35990;SDS011;22064;42.672;23.282;2022-10-16T00:01:18;25.17;;;14.20;;
35990;SDS011;22064;42.672;23.282;2022-10-16T00:03:46;28.33;;;14.52;;
35990;SDS011;22064;42.672;23.282;2022-10-16T00:06:13;28.85;;;14.27;;
35990;SDS011;22064;42.672;23.282;2022-10-16T00:08:40;27.13;;;15.23;;
35990;SDS011;22064;42.672;23.282;2022-10-16T00:13:40;29.42;;;14.73;;
35990;SDS011;22064;42.672;23.282;2022-10-16T00:16:07;26.25;;;14.18;;
35990;SDS011;22064;42.672;23.282;2022-10-16T00:18:34;28.70;;;14.95;;
35990;SDS011;22064;42.672;23.282;2022-10-16T00:21:07;29.70;;;15.10;;
35990;SDS011;22064;42.672;23.282;2022-10-16T00:23:34;28.92;;;14.60;;
35990;SDS011;22064;42.672;23.282;2022-10-16T00:26:05;28.88;;;14.45;;
35990;SDS011;22064;42.672;23.282;2022-10-16T00:28:33;29.77;;;14.55;;
35990;SDS011;22064;42.672;23.282;2022-10-16T00:31:02;28.40;;;14.40;;
35990;SDS011;22064;42.672;23.282;2022-10-16T00:33:32;26.58;;;14.20;;
35990;SDS011;22064;42.672;23.282;2022-10-16T00:35:58;27.83;;;14.07;;
35990;SDS011;22064;42.672;23.282;2022-10-16T00:38:25;28.27;;;13.70;;
35990;SDS011;22064;42.672;23.282;2022-10-16T00:40:51;30.15;;;14.38;;
35990;SDS011;22064;42.672;23.282;2022-10-16T00:43:33;30.45;;;14.80;;
35990;SDS011;22064;42.672;23.282;2022-10-16T00:46:34;23.85;;;12.65;;
35990;SDS011;22064;42.672;23.282;2022-10-16T00:49:04;28.15;;;14.48;;
35990;SDS011;22064;42.672;23.282;2022-10-16T00:51:50;25.55;;;14.20;;
35990;SDS011;22064;42.672;23.282;2022-10-16T00:54:26;30.45;;;15.65;;
35990;SDS011;22064;42.672;23.282;2022-10-16T00:56:54;31.73;;;17.40;;
35990;SDS011;22064;42.672;23.282;2022-10-16T00:59:23;27.48;;;15.55;;
35990;SDS011;22064;42.672;23.282;2022-10-16T01:04:18;30.08;;;15.68;;
35990;SDS011;22064;42.672;23.282;2022-10-16T01:09:23;31.35;;;15.45;;
35990;SDS011;22064;42.672;23.282;2022-10-16T01:14:47;27.63;;;12.55;;
35990;SDS011;22064;42.672;23.282;2022-10-16T01:17:24;24.70;;;12.43;;
35990;SDS011;22064;42.672;23.282;2022-10-16T01:20:16;25.63;;;12.57;;
35990;SDS011;22064;42.672;23.282;2022-10-16T01:22:48;25.90;;;13.70;;
35990;SDS011;22064;42.672;23.282;2022-10-16T01:28:17;23.15;;;11.32;;
35990;SDS011;22064;42.672;23.282;2022-10-16T01:36:10;25.08;;;12.57;;
35990;SDS011;22064;42.672;23.282;2022-10-16T01:38:40;26.67;;;12.40;;
35990;SDS011;22064;42.672;23.282;2022-10-16T01:41:13;26.13;;;12.45;;
35990;SDS011;22064;42.672;23.282;2022-10-16T01:43:46;26.60;;;13.18;;
35990;SDS011;22064;42.672;23.282;2022-10-16T01:46:18;28.83;;;14.88;;
35990;SDS011;22064;42.672;23.282;2022-10-16T01:48:46;31.45;;;15.30;;
35990;SDS011;22064;42.672;23.282;2022-10-16T01:51:14;32.08;;;15.80;;
35990;SDS011;22064;42.672;23.282;2022-10-16T01:53:43;31.30;;;15.18;;
35990;SDS011;22064;42.672;23.282;2022-10-16T01:56:14;29.17;;;14.63;;
35990;SDS011;22064;42.672;23.282;2022-10-16T01:58:47;30.42;;;14.07;;
35990;SDS011;22064;42.672;23.282;2022-10-16T02:01:16;30.13;;;14.20;;
35990;SDS011;22064;42.672;23.282;2022-10-16T02:03:45;30.30;;;14.77;;
35990;SDS011;22064;42.672;23.282;2022-10-16T02:06:14;29.95;;;14.90;;
35990;SDS011;22064;42.672;23.282;2022-10-16T02:08:40;32.60;;;14.98;;
35990;SDS011;22064;42.672;23.282;2022-10-16T02:11:09;32.10;;;14.90;;
35990;SDS011;22064;42.672;23.282;2022-10-16T02:13:46;28.13;;;14.57;;
35990;SDS011;22064;42.672;23.282;2022-10-16T02:16:16;28.98;;;15.10;;
35990;SDS011;22064;42.672;23.282;2022-10-16T02:18:42;27.67;;;14.75;;
35990;SDS011;22064;42.672;23.282;2022-10-16T02:24:08;28.17;;;14.23;;
35990;SDS011;22064;42.672;23.282;2022-10-16T02:26:40;32.70;;;14.00;;
35990;SDS011;22064;42.672;23.282;2022-10-16T02:29:15;32.05;;;13.95;;
35990;SDS011;22064;42.672;23.282;2022-10-16T02:31:45;23.17;;;12.20;;
35990;SDS011;22064;42.672;23.282;2022-10-16T02:34:16;25.20;;;12.88;;
35990;SDS011;22064;42.672;23.282;2022-10-16T02:36:44;25.83;;;12.65;;
35990;SDS011;22064;42.672;23.282;2022-10-16T02:39:11;29.33;;;13.80;;
35990;SDS011;22064;42.672;23.282;2022-10-16T02:41:37;26.90;;;13.93;;
35990;SDS011;22064;42.672;23.282;2022-10-16T02:44:03;27.55;;;13.43;;
35990;SDS011;22064;42.672;23.282;2022-10-16T02:46:29;29.77;;;14.68;;
35990;SDS011;22064;42.672;23.282;2022-10-16T02:48:54;27.40;;;14.45;;
35990;SDS011;22064;42.672;23.282;2022-10-16T02:51:20;29.15;;;14.20;;
35990;SDS011;22064;42.672;23.282;2022-10-16T02:53:45;35.08;;;15.00;;
35990;SDS011;22064;42.672;23.282;2022-10-16T02:56:11;26.40;;;13.95;;
35990;SDS011;22064;42.672;23.282;2022-10-16T02:58:36;30.95;;;14.27;;
35990;SDS011;22064;42.672;23.282;2022-10-16T03:01:02;31.05;;;14.70;;
35990;SDS011;22064;42.672;23.282;2022-10-16T03:03:28;31.95;;;15.55;;
35990;SDS011;22064;42.672;23.282;2022-10-16T03:05:53;34.83;;;15.68;;
35990;SDS011;22064;42.672;23.282;2022-10-16T03:08:19;29.55;;;14.68;;
35990;SDS011;22064;42.672;23.282;2022-10-16T03:10:49;30.73;;;14.70;;
35990;SDS011;22064;42.672;23.282;2022-10-16T03:13:15;28.58;;;14.82;;
35990;SDS011;22064;42.672;23.282;2022-10-16T03:15:40;29.30;;;14.15;;
35990;SDS011;22064;42.672;23.282;2022-10-16T03:18:06;29.67;;;14.52;;
35990;SDS011;22064;42.672;23.282;2022-10-16T03:20:32;31.70;;;14.63;;
35990;SDS011;22064;42.672;23.282;2022-10-16T03:22:58;32.45;;;15.25;;
35990;SDS011;22064;42.672;23.282;2022-10-16T03:25:23;36.03;;;15.68;;
35990;SDS011;22064;42.672;23.282;2022-10-16T03:27:49;30.63;;;15.57;;
35990;SDS011;22064;42.672;23.282;2022-10-16T03:30:14;33.13;;;17.13;;
35990;SDS011;22064;42.672;23.282;2022-10-16T03:32:41;34.40;;;17.08;;
35990;SDS011;22064;42.672;23.282;2022-10-16T03:35:08;35.97;;;17.45;;
35990;SDS011;22064;42.672;23.282;2022-10-16T03:37:34;34.28;;;17.33;;
35990;SDS011;22064;42.672;23.282;2022-10-16T03:40:00;32.80;;;16.88;;
35990;SDS011;22064;42.672;23.282;2022-10-16T03:42:26;30.60;;;15.85;;
35990;SDS011;22064;42.672;23.282;2022-10-16T03:44:51;28.00;;;15.02;;
35990;SDS011;22064;42.672;23.282;2022-10-16T03:47:17;28.33;;;15.10;;
35990;SDS011;22064;42.672;23.282;2022-10-16T03:49:46;29.10;;;14.30;;
35990;SDS011;22064;42.672;23.282;2022-10-16T03:52:13;30.90;;;14.32;;
35990;SDS011;22064;42.672;23.282;2022-10-16T03:54:38;28.08;;;14.32;;
35990;SDS011;22064;42.672;23.282;2022-10-16T03:57:04;27.30;;;13.35;;
35990;SDS011;22064;42.672;23.282;2022-10-16T03:59:29;28.52;;;13.88;;
35990;SDS011;22064;42.672;23.282;2022-10-16T04:01:55;28.40;;;14.20;;
35990;SDS011;22064;42.672;23.282;2022-10-16T04:04:21;29.33;;;15.43;;
35990;SDS011;22064;42.672;23.282;2022-10-16T04:06:46;31.45;;;15.45;;
35990;SDS011;22064;42.672;23.282;2022-10-16T04:09:12;31.75;;;16.20;;
35990;SDS011;22064;42.672;23.282;2022-10-16T04:11:37;27.83;;;13.90;;
35990;SDS011;22064;42.672;23.282;2022-10-16T04:14:04;32.08;;;15.32;;
35990;SDS011;22064;42.672;23.282;2022-10-16T04:16:29;27.95;;;14.90;;
35990;SDS011;22064;42.672;23.282;2022-10-16T04:18:55;32.22;;;14.57;;
35990;SDS011;22064;42.672;23.282;2022-10-16T04:21:20;30.35;;;14.98;;
35990;SDS011;22064;42.672;23.282;2022-10-16T04:23:46;29.50;;;14.57;;
35990;SDS011;22064;42.672;23.282;2022-10-16T04:26:12;28.40;;;14.30;;
35990;SDS011;22064;42.672;23.282;2022-10-16T04:28:37;30.38;;;13.32;;
35990;SDS011;22064;42.672;23.282;2022-10-16T04:31:03;28.92;;;13.63;;
35990;SDS011;22064;42.672;23.282;2022-10-16T04:33:30;24.02;;;12.27;;
35990;SDS011;22064;42.672;23.282;2022-10-16T04:35:56;28.00;;;12.98;;
35990;SDS011;22064;42.672;23.282;2022-10-16T04:38:25;28.15;;;13.55;;
35990;SDS011;22064;42.672;23.282;2022-10-16T04:40:50;26.30;;;13.70;;
35990;SDS011;22064;42.672;23.282;2022-10-16T04:43:16;33.95;;;14.93;;
35990;SDS011;22064;42.672;23.282;2022-10-16T04:45:41;29.30;;;14.43;;
35990;SDS011;22064;42.672;23.282;2022-10-16T04:48:07;27.52;;;13.75;;
35990;SDS011;22064;42.672;23.282;2022-10-16T04:50:33;33.63;;;14.57;;
35990;SDS011;22064;42.672;23.282;2022-10-16T04:53:04;31.10;;;14.20;;
35990;SDS011;22064;42.672;23.282;2022-10-16T04:55:31;29.10;;;13.80;;
35990;SDS011;22064;42.672;23.282;2022-10-16T04:57:56;28.52;;;14.18;;
35990;SDS011;22064;42.672;23.282;2022-10-16T05:00:22;28.67;;;13.98;;
35990;SDS011;22064;42.672;23.282;2022-10-16T05:02:49;30.20;;;15.07;;
35990;SDS011;22064;42.672;23.282;2022-10-16T05:05:15;28.20;;;13.15;;
35990;SDS011;22064;42.672;23.282;2022-10-16T05:07:41;25.23;;;12.95;;
35990;SDS011;22064;42.672;23.282;2022-10-16T05:10:07;22.15;;;12.27;;
35990;SDS011;22064;42.672;23.282;2022-10-16T05:12:33;25.15;;;11.80;;
35990;SDS011;22064;42.672;23.282;2022-10-16T05:14:59;23.65;;;11.73;;
35990;SDS011;22064;42.672;23.282;2022-10-16T05:17:25;27.10;;;12.90;;
35990;SDS011;22064;42.672;23.282;2022-10-16T05:19:51;23.15;;;12.05;;
35990;SDS011;22064;42.672;23.282;2022-10-16T05:22:17;24.27;;;12.20;;
35990;SDS011;22064;42.672;23.282;2022-10-16T05:24:43;26.83;;;12.48;;
35990;SDS011;22064;42.672;23.282;2022-10-16T05:27:09;26.02;;;11.85;;
35990;SDS011;22064;42.672;23.282;2022-10-16T05:29:36;21.33;;;11.60;;
35990;SDS011;22064;42.672;23.282;2022-10-16T05:32:02;26.65;;;12.45;;
35990;SDS011;22064;42.672;23.282;2022-10-16T05:34:27;26.15;;;12.35;;
35990;SDS011;22064;42.672;23.282;2022-10-16T05:36:53;26.05;;;13.13;;
35990;SDS011;22064;42.672;23.282;2022-10-16T05:39:18;25.23;;;12.38;;
35990;SDS011;22064;42.672;23.282;2022-10-16T05:41:44;23.10;;;11.73;;
35990;SDS011;22064;42.672;23.282;2022-10-16T05:44:10;24.48;;;12.65;;
35990;SDS011;22064;42.672;23.282;2022-10-16T05:46:36;24.98;;;12.85;;
35990;SDS011;22064;42.672;23.282;2022-10-16T05:49:02;27.52;;;13.50;;
35990;SDS011;22064;42.672;23.282;2022-10-16T05:51:28;29.70;;;14.95;;
35990;SDS011;22064;42.672;23.282;2022-10-16T05:53:53;27.67;;;14.73;;
35990;SDS011;22064;42.672;23.282;2022-10-16T05:56:19;30.63;;;14.30;;
35990;SDS011;22064;42.672;23.282;2022-10-16T05:58:45;28.20;;;15.45;;
35990;SDS011;22064;42.672;23.282;2022-10-16T06:01:12;28.42;;;15.65;;
35990;SDS011;22064;42.672;23.282;2022-10-16T06:03:42;30.40;;;16.05;;
35990;SDS011;22064;42.672;23.282;2022-10-16T06:06:15;33.47;;;15.65;;
35990;SDS011;22064;42.672;23.282;2022-10-16T06:08:45;31.65;;;15.05;;
35990;SDS011;22064;42.672;23.282;2022-10-16T06:11:13;29.27;;;16.10;;
35990;SDS011;22064;42.672;23.282;2022-10-16T06:13:40;28.52;;;15.40;;
35990;SDS011;22064;42.672;23.282;2022-10-16T06:16:11;31.17;;;15.73;;
35990;SDS011;22064;42.672;23.282;2022-10-16T06:18:38;26.75;;;14.82;;
35990;SDS011;22064;42.672;23.282;2022-10-16T06:21:11;29.98;;;15.57;;
35990;SDS011;22064;42.672;23.282;2022-10-16T06:23:39;26.92;;;15.30;;
35990;SDS011;22064;42.672;23.282;2022-10-16T06:26:05;30.17;;;15.68;;
35990;SDS011;22064;42.672;23.282;2022-10-16T06:28:35;27.45;;;14.77;;
35990;SDS011;22064;42.672;23.282;2022-10-16T06:31:02;27.65;;;15.45;;
35990;SDS011;22064;42.672;23.282;2022-10-16T06:33:29;26.88;;;14.38;;
35990;SDS011;22064;42.672;23.282;2022-10-16T06:36:02;28.25;;;14.43;;
35990;SDS011;22064;42.672;23.282;2022-10-16T06:38:29;27.13;;;13.77;;
35990;SDS011;22064;42.672;23.282;2022-10-16T06:40:55;25.58;;;14.25;;
35990;SDS011;22064;42.672;23.282;2022-10-16T06:43:21;24.73;;;13.52;;
35990;SDS011;22064;42.672;23.282;2022-10-16T06:45:53;24.80;;;13.48;;
35990;SDS011;22064;42.672;23.282;2022-10-16T06:48:20;24.40;;;13.75;;
35990;SDS011;22064;42.672;23.282;2022-10-16T06:51:28;25.27;;;13.52;;
35990;SDS011;22064;42.672;23.282;2022-10-16T06:53:37;25.73;;;13.55;;
35990;SDS011;22064;42.672;23.282;2022-10-16T06:58:38;21.10;;;12.68;;
35990;SDS011;22064;42.672;23.282;2022-10-16T07:01:05;22.30;;;11.93;;
35990;SDS011;22064;42.672;23.282;2022-10-16T07:03:31;22.98;;;12.82;;
35990;SDS011;22064;42.672;23.282;2022-10-16T07:06:00;23.55;;;13.05;;
35990;SDS011;22064;42.672;23.282;2022-10-16T07:08:30;23.75;;;12.70;;
35990;SDS011;22064;42.672;23.282;2022-10-16T07:11:00;24.17;;;13.35;;
35990;SDS011;22064;42.672;23.282;2022-10-16T07:13:34;25.00;;;12.25;;
35990;SDS011;22064;42.672;23.282;2022-10-16T07:16:07;27.10;;;16.63;;
35990;SDS011;22064;42.672;23.282;2022-10-16T07:18:34;27.92;;;15.75;;
35990;SDS011;22064;42.672;23.282;2022-10-16T07:21:03;26.88;;;13.95;;
35990;SDS011;22064;42.672;23.282;2022-10-16T07:23:30;24.95;;;14.00;;
35990;SDS011;22064;42.672;23.282;2022-10-16T07:25:56;24.48;;;13.07;;
35990;SDS011;22064;42.672;23.282;2022-10-16T07:28:21;24.55;;;12.77;;
35990;SDS011;22064;42.672;23.282;2022-10-16T07:30:47;25.05;;;12.98;;
35990;SDS011;22064;42.672;23.282;2022-10-16T07:33:13;23.55;;;13.38;;
35990;SDS011;22064;42.672;23.282;2022-10-16T07:35:52;23.40;;;12.82;;
35990;SDS011;22064;42.672;23.282;2022-10-16T07:38:19;24.90;;;13.52;;
35990;SDS011;22064;42.672;23.282;2022-10-16T07:40:45;24.38;;;13.20;;
35990;SDS011;22064;42.672;23.282;2022-10-16T07:43:11;24.52;;;13.70;;
35990;SDS011;22064;42.672;23.282;2022-10-16T07:45:36;26.02;;;13.43;;
35990;SDS011;22064;42.672;23.282;2022-10-16T07:48:02;24.15;;;13.80;;
35990;SDS011;22064;42.672;23.282;2022-10-16T07:50:28;25.40;;;13.57;;
35990;SDS011;22064;42.672;23.282;2022-10-16T07:52:54;25.15;;;13.32;;
35990;SDS011;22064;42.672;23.282;2022-10-16T07:55:19;25.48;;;13.05;;
35990;SDS011;22064;42.672;23.282;2022-10-16T07:57:45;26.60;;;13.57;;
35990;SDS011;22064;42.672;23.282;2022-10-16T08:00:10;26.02;;;13.32;;
35990;SDS011;22064;42.672;23.282;2022-10-16T08:02:39;27.73;;;14.70;;
35990;SDS011;22064;42.672;23.282;2022-10-16T08:05:06;27.20;;;13.93;;
35990;SDS011;22064;42.672;23.282;2022-10-16T08:07:32;23.17;;;12.85;;
35990;SDS011;22064;42.672;23.282;2022-10-16T08:09:58;23.38;;;12.60;;
35990;SDS011;22064;42.672;23.282;2022-10-16T08:12:24;24.23;;;12.90;;
35990;SDS011;22064;42.672;23.282;2022-10-16T08:14:52;25.40;;;14.18;;
35990;SDS011;22064;42.672;23.282;2022-10-16T08:17:18;25.85;;;13.65;;
35990;SDS011;22064;42.672;23.282;2022-10-16T08:19:44;24.33;;;13.15;;
35990;SDS011;22064;42.672;23.282;2022-10-16T08:22:15;23.20;;;12.93;;
35990;SDS011;22064;42.672;23.282;2022-10-16T08:24:41;23.05;;;12.80;;
35990;SDS011;22064;42.672;23.282;2022-10-16T08:27:06;21.90;;;11.52;;
35990;SDS011;22064;42.672;23.282;2022-10-16T08:29:34;19.60;;;10.68;;
35990;SDS011;22064;42.672;23.282;2022-10-16T08:31:59;21.70;;;11.32;;
35990;SDS011;22064;42.672;23.282;2022-10-16T08:34:25;19.25;;;9.82;;
35990;SDS011;22064;42.672;23.282;2022-10-16T08:36:52;18.15;;;9.57;;
35990;SDS011;22064;42.672;23.282;2022-10-16T08:39:18;21.55;;;10.48;;
35990;SDS011;22064;42.672;23.282;2022-10-16T08:44:25;16.17;;;8.45;;
35990;SDS011;22064;42.672;23.282;2022-10-16T08:49:27;14.25;;;7.68;;
35990;SDS011;22064;42.672;23.282;2022-10-16T08:51:52;17.00;;;8.15;;
35990;SDS011;22064;42.672;23.282;2022-10-16T08:54:41;14.40;;;7.18;;
35990;SDS011;22064;42.672;23.282;2022-10-16T08:57:26;15.25;;;7.13;;
35990;SDS011;22064;42.672;23.282;2022-10-16T08:59:52;14.68;;;6.72;;
35990;SDS011;22064;42.672;23.282;2022-10-16T09:05:16;16.08;;;6.78;;
35990;SDS011;22064;42.672;23.282;2022-10-16T09:13:48;10.20;;;4.82;;
35990;SDS011;22064;42.672;23.282;2022-10-16T09:21:46;11.70;;;5.30;;
35990;SDS011;22064;42.672;23.282;2022-10-16T09:24:17;11.13;;;4.57;;
35990;SDS011;22064;42.672;23.282;2022-10-16T09:26:46;10.35;;;5.03;;
35990;SDS011;22064;42.672;23.282;2022-10-16T09:29:13;11.95;;;5.13;;
35990;SDS011;22064;42.672;23.282;2022-10-16T09:31:39;11.10;;;5.10;;
35990;SDS011;22064;42.672;23.282;2022-10-16T09:34:05;10.27;;;4.85;;
35990;SDS011;22064;42.672;23.282;2022-10-16T09:39:05;7.65;;;4.18;;
35990;SDS011;22064;42.672;23.282;2022-10-16T09:41:33;12.10;;;4.43;;
35990;SDS011;22064;42.672;23.282;2022-10-16T09:44:01;9.70;;;4.60;;
35990;SDS011;22064;42.672;23.282;2022-10-16T09:46:32;8.82;;;4.88;;
35990;SDS011;22064;42.672;23.282;2022-10-16T09:49:00;8.10;;;4.03;;
35990;SDS011;22064;42.672;23.282;2022-10-16T09:51:35;12.07;;;4.47;;
35990;SDS011;22064;42.672;23.282;2022-10-16T09:54:13;8.48;;;4.38;;
35990;SDS011;22064;42.672;23.282;2022-10-16T09:56:41;7.45;;;4.85;;
35990;SDS011;22064;42.672;23.282;2022-10-16T09:59:14;7.93;;;4.22;;
35990;SDS011;22064;42.672;23.282;2022-10-16T10:01:49;9.50;;;4.25;;
35990;SDS011;22064;42.672;23.282;2022-10-16T10:04:20;9.23;;;4.80;;
35990;SDS011;22064;42.672;23.282;2022-10-16T10:06:48;8.80;;;4.15;;
35990;SDS011;22064;42.672;23.282;2022-10-16T10:11:54;14.85;;;5.20;;
35990;SDS011;22064;42.672;23.282;2022-10-16T10:16:51;8.35;;;4.47;;
35990;SDS011;22064;42.672;23.282;2022-10-16T10:19:19;8.93;;;4.40;;
35990;SDS011;22064;42.672;23.282;2022-10-16T10:21:47;6.68;;;3.75;;
35990;SDS011;22064;42.672;23.282;2022-10-16T10:24:15;7.55;;;3.90;;
35990;SDS011;22064;42.672;23.282;2022-10-16T10:29:31;7.57;;;3.90;;
35990;SDS011;22064;42.672;23.282;2022-10-16T10:32:35;8.52;;;4.13;;
35990;SDS011;22064;42.672;23.282;2022-10-16T10:38:00;6.90;;;3.60;;
35990;SDS011;22064;42.672;23.282;2022-10-16T10:46:06;6.32;;;3.78;;
35990;SDS011;22064;42.672;23.282;2022-10-16T10:51:54;6.82;;;3.85;;
35990;SDS011;22064;42.672;23.282;2022-10-16T10:54:07;7.38;;;4.15;;
35990;SDS011;22064;42.672;23.282;2022-10-16T10:56:42;8.63;;;4.03;;
35990;SDS011;22064;42.672;23.282;2022-10-16T10:59:26;7.43;;;4.07;;
35990;SDS011;22064;42.672;23.282;2022-10-16T11:05:04;7.57;;;3.85;;
35990;SDS011;22064;42.672;23.282;2022-10-16T11:07:32;7.15;;;4.65;;
35990;SDS011;22064;42.672;23.282;2022-10-16T11:10:04;7.82;;;4.07;;
35990;SDS011;22064;42.672;23.282;2022-10-16T11:12:47;7.93;;;3.88;;
35990;SDS011;22064;42.672;23.282;2022-10-16T11:15:23;7.55;;;4.07;;
35990;SDS011;22064;42.672;23.282;2022-10-16T11:18:08;8.07;;;4.03;;
35990;SDS011;22064;42.672;23.282;2022-10-16T11:20:43;9.18;;;3.65;;
35990;SDS011;22064;42.672;23.282;2022-10-16T11:26:02;5.90;;;3.35;;
35990;SDS011;22064;42.672;23.282;2022-10-16T11:28:33;6.70;;;3.70;;
35990;SDS011;22064;42.672;23.282;2022-10-16T11:31:04;6.25;;;3.67;;
35990;SDS011;22064;42.672;23.282;2022-10-16T11:33:49;6.88;;;3.70;;
35990;SDS011;22064;42.672;23.282;2022-10-16T11:36:28;6.07;;;3.60;;
35990;SDS011;22064;42.672;23.282;2022-10-16T11:41:34;8.20;;;4.10;;
35990;SDS011;22064;42.672;23.282;2022-10-16T11:44:21;6.78;;;3.40;;
35990;SDS011;22064;42.672;23.282;2022-10-16T11:49:42;7.75;;;3.92;;
35990;SDS011;22064;42.672;23.282;2022-10-16T11:52:25;6.93;;;3.78;;
35990;SDS011;22064;42.672;23.282;2022-10-16T11:55:04;7.53;;;3.60;;
35990;SDS011;22064;42.672;23.282;2022-10-16T11:57:41;7.63;;;3.83;;
35990;SDS011;22064;42.672;23.282;2022-10-16T12:00:22;6.55;;;3.85;;
35990;SDS011;22064;42.672;23.282;2022-10-16T12:03:02;7.32;;;3.45;;
35990;SDS011;22064;42.672;23.282;2022-10-16T12:08:15;6.32;;;3.50;;
35990;SDS011;22064;42.672;23.282;2022-10-16T12:10:43;6.97;;;3.70;;
35990;SDS011;22064;42.672;23.282;2022-10-16T12:18:39;6.70;;;3.28;;
35990;SDS011;22064;42.672;23.282;2022-10-16T12:21:06;7.45;;;3.70;;
35990;SDS011;22064;42.672;23.282;2022-10-16T12:23:36;7.18;;;3.50;;
35990;SDS011;22064;42.672;23.282;2022-10-16T12:26:03;8.48;;;3.90;;
35990;SDS011;22064;42.672;23.282;2022-10-16T12:28:31;9.02;;;3.75;;
35990;SDS011;22064;42.672;23.282;2022-10-16T12:31:00;6.05;;;3.90;;
35990;SDS011;22064;42.672;23.282;2022-10-16T12:36:02;9.75;;;4.20;;
35990;SDS011;22064;42.672;23.282;2022-10-16T12:38:52;10.25;;;3.80;;
35990;SDS011;22064;42.672;23.282;2022-10-16T12:41:38;6.20;;;3.47;;
35990;SDS011;22064;42.672;23.282;2022-10-16T12:44:05;7.40;;;4.30;;
35990;SDS011;22064;42.672;23.282;2022-10-16T12:46:47;9.60;;;4.93;;
35990;SDS011;22064;42.672;23.282;2022-10-16T12:51:38;5.97;;;3.58;;
35990;SDS011;22064;42.672;23.282;2022-10-16T12:59:20;6.55;;;4.07;;
35990;SDS011;22064;42.672;23.282;2022-10-16T13:10:13;9.30;;;4.38;;
35990;SDS011;22064;42.672;23.282;2022-10-16T13:19:06;7.40;;;3.45;;
35990;SDS011;22064;42.672;23.282;2022-10-16T13:21:53;6.32;;;3.22;;
35990;SDS011;22064;42.672;23.282;2022-10-16T13:30:31;5.70;;;3.70;;
35990;SDS011;22064;42.672;23.282;2022-10-16T13:33:13;4.38;;;2.90;;
35990;SDS011;22064;42.672;23.282;2022-10-16T13:35:52;6.85;;;3.50;;
35990;SDS011;22064;42.672;23.282;2022-10-16T13:38:20;4.75;;;3.28;;
35990;SDS011;22064;42.672;23.282;2022-10-16T13:40:48;7.97;;;3.90;;
35990;SDS011;22064;42.672;23.282;2022-10-16T13:43:16;4.55;;;3.08;;
35990;SDS011;22064;42.672;23.282;2022-10-16T13:45:52;7.00;;;3.50;;
35990;SDS011;22064;42.672;23.282;2022-10-16T13:48:29;6.50;;;3.60;;
35990;SDS011;22064;42.672;23.282;2022-10-16T13:51:03;4.97;;;3.35;;
35990;SDS011;22064;42.672;23.282;2022-10-16T13:53:33;7.05;;;3.60;;
35990;SDS011;22064;42.672;23.282;2022-10-16T13:56:00;4.88;;;3.63;;
35990;SDS011;22064;42.672;23.282;2022-10-16T13:58:28;8.40;;;3.80;;
35990;SDS011;22064;42.672;23.282;2022-10-16T14:00:57;7.85;;;3.70;;
35990;SDS011;22064;42.672;23.282;2022-10-16T14:03:25;7.45;;;4.10;;
35990;SDS011;22064;42.672;23.282;2022-10-16T14:05:53;9.90;;;3.80;;
35990;SDS011;22064;42.672;23.282;2022-10-16T14:08:24;6.85;;;3.60;;
35990;SDS011;22064;42.672;23.282;2022-10-16T14:10:56;7.28;;;3.40;;
35990;SDS011;22064;42.672;23.282;2022-10-16T14:13:29;8.88;;;4.40;;
35990;SDS011;22064;42.672;23.282;2022-10-16T14:16:16;9.38;;;3.85;;
35990;SDS011;22064;42.672;23.282;2022-10-16T14:18:50;6.70;;;3.90;;
35990;SDS011;22064;42.672;23.282;2022-10-16T14:21:22;10.57;;;3.83;;
35990;SDS011;22064;42.672;23.282;2022-10-16T14:23:48;8.00;;;3.35;;
35990;SDS011;22064;42.672;23.282;2022-10-16T14:26:15;6.90;;;3.63;;
35990;SDS011;22064;42.672;23.282;2022-10-16T14:28:43;7.15;;;3.90;;
35990;SDS011;22064;42.672;23.282;2022-10-16T14:33:44;5.82;;;3.53;;
35990;SDS011;22064;42.672;23.282;2022-10-16T14:38:36;4.68;;;3.22;;
35990;SDS011;22064;42.672;23.282;2022-10-16T14:41:04;7.03;;;3.53;;
35990;SDS011;22064;42.672;23.282;2022-10-16T14:46:06;7.80;;;4.03;;
35990;SDS011;22064;42.672;23.282;2022-10-16T14:48:42;9.60;;;4.55;;
35990;SDS011;22064;42.672;23.282;2022-10-16T14:51:13;8.75;;;3.80;;
35990;SDS011;22064;42.672;23.282;2022-10-16T14:53:40;7.38;;;3.60;;
35990;SDS011;22064;42.672;23.282;2022-10-16T14:56:14;7.25;;;3.15;;
35990;SDS011;22064;42.672;23.282;2022-10-16T14:58:43;5.07;;;3.13;;
35990;SDS011;22064;42.672;23.282;2022-10-16T15:01:09;11.60;;;3.95;;
35990;SDS011;22064;42.672;23.282;2022-10-16T15:03:37;7.32;;;3.85;;
35990;SDS011;22064;42.672;23.282;2022-10-16T15:06:03;9.70;;;4.18;;
35990;SDS011;22064;42.672;23.282;2022-10-16T15:08:29;7.32;;;3.88;;
35990;SDS011;22064;42.672;23.282;2022-10-16T15:10:55;9.25;;;3.75;;
35990;SDS011;22064;42.672;23.282;2022-10-16T15:13:20;6.43;;;3.50;;
35990;SDS011;22064;42.672;23.282;2022-10-16T15:15:46;5.35;;;3.50;;
35990;SDS011;22064;42.672;23.282;2022-10-16T15:18:14;8.52;;;3.50;;
35990;SDS011;22064;42.672;23.282;2022-10-16T15:20:47;9.43;;;3.60;;
35990;SDS011;22064;42.672;23.282;2022-10-16T15:23:16;8.82;;;3.58;;
35990;SDS011;22064;42.672;23.282;2022-10-16T15:25:50;8.80;;;3.90;;
35990;SDS011;22064;42.672;23.282;2022-10-16T15:28:18;9.90;;;4.65;;
35990;SDS011;22064;42.672;23.282;2022-10-16T15:30:45;10.05;;;3.75;;
35990;SDS011;22064;42.672;23.282;2022-10-16T15:33:12;10.75;;;3.70;;
35990;SDS011;22064;42.672;23.282;2022-10-16T15:35:41;7.70;;;3.70;;
35990;SDS011;22064;42.672;23.282;2022-10-16T15:38:11;11.23;;;4.05;;
35990;SDS011;22064;42.672;23.282;2022-10-16T15:40:37;9.82;;;4.55;;
35990;SDS011;22064;42.672;23.282;2022-10-16T15:43:03;9.50;;;4.05;;
35990;SDS011;22064;42.672;23.282;2022-10-16T15:45:29;8.93;;;3.90;;
35990;SDS011;22064;42.672;23.282;2022-10-16T15:47:55;8.95;;;4.35;;
35990;SDS011;22064;42.672;23.282;2022-10-16T15:50:21;12.75;;;4.95;;
35990;SDS011;22064;42.672;23.282;2022-10-16T15:52:46;11.40;;;4.90;;
35990;SDS011;22064;42.672;23.282;2022-10-16T15:55:13;9.80;;;4.45;;
35990;SDS011;22064;42.672;23.282;2022-10-16T15:57:39;9.38;;;4.53;;
35990;SDS011;22064;42.672;23.282;2022-10-16T16:00:12;7.30;;;4.28;;
35990;SDS011;22064;42.672;23.282;2022-10-16T16:02:40;11.35;;;4.10;;
35990;SDS011;22064;42.672;23.282;2022-10-16T16:05:07;7.85;;;4.03;;
35990;SDS011;22064;42.672;23.282;2022-10-16T16:07:34;7.45;;;4.18;;
35990;SDS011;22064;42.672;23.282;2022-10-16T16:10:01;6.93;;;4.50;;
35990;SDS011;22064;42.672;23.282;2022-10-16T16:12:26;14.23;;;6.05;;
35990;SDS011;22064;42.672;23.282;2022-10-16T16:14:52;10.48;;;4.70;;
35990;SDS011;22064;42.672;23.282;2022-10-16T16:17:18;13.00;;;5.18;;
35990;SDS011;22064;42.672;23.282;2022-10-16T16:19:45;12.77;;;4.43;;
35990;SDS011;22064;42.672;23.282;2022-10-16T16:22:10;10.65;;;4.60;;
35990;SDS011;22064;42.672;23.282;2022-10-16T16:24:36;11.50;;;5.07;;
35990;SDS011;22064;42.672;23.282;2022-10-16T16:27:02;10.02;;;4.78;;
35990;SDS011;22064;42.672;23.282;2022-10-16T16:29:27;10.60;;;4.90;;
35990;SDS011;22064;42.672;23.282;2022-10-16T16:31:53;12.68;;;5.47;;
35990;SDS011;22064;42.672;23.282;2022-10-16T16:34:25;12.20;;;5.50;;